Terminal Aerodrome Forecast
Issued by NWS Grand Forks, ND

Home | Current Version | Previous Version | Text Only | Print | Product List | Glossary Off
Versions: 1 2 3 4 5 6 7 8 9 10 11 12 13 14

000
FTUS43 KFGF 251136
TAFGFK
TAF
KGFK 251136Z 2512/2612 29011KT P6SM OVC020
     FM251300 30013G20KT P6SM VCSH OVC015
     FM251600 31013G20KT P6SM OVC020
     FM252000 32012KT P6SM BKN050
     FM252300 31008KT P6SM BKN070
     FM260000 31007KT P6SM SCT080
     FM260200 24005KT P6SM FEW250=

USA.gov is the U.S. government's official web portal to all federal, state and local government web resources and services.